• Join FlightAware (Why Join?)
  • Login
  • US Flag 
02:18PM EDT


 

Airport Tracker/Info


-or-


 

Live Flight TrackerFlight Track Log ✈ N373LD ✈ 16-Sep-2013 ✈ KMLS - KMDW

Flight Track Log - Related Links

Times and Time Zones

All times are in EDT time to prevent confusion due to time zone crossing. See the N373LD flight status page for this flight to view local times or setup timezone preferences in your user account.

Time Position Orientation Groundspeed Altitude Reporting Facility
EDT Latitude Longitude Course Direction KTS MPH feet Rate Location/Type
10:28AM 46.3617 -105.5950 101° East 168 193 8,200  Level Salt Lake Center
10:29AM 46.3556 -105.5308 98° East 161 185 9,400 1,320 Climbing Salt Lake Center
10:30AM 46.3414 -105.4503 104° East 168 193 11,000 1,260 Climbing Salt Lake Center
10:32AM 46.3327 -105.2898 110° East  Level Estimated
10:32AM 46.3306 -105.3839 103° East 169 194 12,100  Level Salt Lake Center
10:33AM 46.3153 -105.1910 104° East  Level FlightAware Approximate
10:33AM 46.3186 -105.3086 103° East 175 201 13,600  Level Salt Lake Center
10:34AM 46.2990 -105.0919 101° East  Level Estimated
10:34AM 46.3075 -105.2397 103° East 175 201 14,900  Level Salt Lake Center
10:35AM 46.2969 -105.1744 103° East 172 198 16,000 1,020 Climbing Salt Lake Center
10:36AM 46.2850 -105.1028 104° East 177 204 17,100 1,020 Climbing Salt Lake Center
10:37AM 46.2736 -105.0364 104° East 175 201 18,200 1,020 Climbing Salt Lake Center
10:38AM 46.2614 -104.9681 104° East 174 200 19,300 1,020 Climbing Salt Lake Center
10:39AM 46.2503 -104.8975 103° East 179 206 20,300 900 Climbing Salt Lake Center
10:40AM 46.2367 -104.8142 103° East 186 214 21,200 900 Climbing Salt Lake Center
10:41AM 46.2236 -104.7361 104° East 194 223 22,200 900 Climbing Salt Lake Center
10:42AM 46.2094 -104.6578 105° East 200 230 23,100 960 Climbing Salt Lake Center
10:43AM 46.1942 -104.5714 104° East 203 234 24,300 960 Climbing Salt Lake Center
10:44AM 46.1808 -104.4928 104° East 201 231 25,200 840 Climbing Salt Lake Center
10:45AM 46.1658 -104.4019 103° East 208 239 26,100 720 Climbing Salt Lake Center
10:46AM 46.1506 -104.3183 105° East 213 245 26,800 420 Climbing Salt Lake Center
10:47AM 46.1353 -104.2289 104° East 223 257 27,000 60 Climbing Salt Lake Center
10:48AM 46.1169 -104.1286 105° East 246 283 27,000  Level Salt Lake Center
10:49AM 46.0981 -104.0247 105° East 261 300 27,000  Level Salt Lake Center
10:50AM 46.0756 -103.9000 105° East 267 307 27,000  Level Salt Lake Center
10:51AM 46.0586 -103.7958 103° East 268 308 27,000  Level Salt Lake Center
10:52AM 46.0394 -103.6919 105° East 269 310 27,000  Level Salt Lake Center
10:53AM 46.0211 -103.5903 105° East 265 305 27,000  Level Salt Lake Center
10:54AM 46.0028 -103.4889 105° East 264 304 27,000  Level Salt Lake Center
10:55AM 45.9847 -103.3858 104° East 266 306 27,000  Level Salt Lake Center
10:56AM 45.9619 -103.2647 105° East 265 305 27,000  Level Salt Lake Center
10:57AM 45.9433 -103.1647 105° East 264 304 27,000  Level Salt Lake Center
10:58AM 45.9247 -103.0622 105° East 264 304 27,000  Level Salt Lake Center
10:59AM 45.9061 -102.9647 105° East 268 308 27,000  Level Minneapolis Center
11:00AM 45.8869 -102.8636 105° East 265 305 27,000  Level Minneapolis Center
11:01AM 45.8669 -102.7594 105° East 269 310 27,000  Level Minneapolis Center
11:02AM 45.8456 -102.6475 105° East 266 306 27,000  Level Minneapolis Center
11:03AM 45.8250 -102.5447 106° East 269 310 27,000  Level Minneapolis Center
11:04AM 45.8053 -102.4408 105° East 269 310 27,000  Level Minneapolis Center
11:06AM 45.7844 -102.3386 106° East 268 308 27,000  Level Minneapolis Center
11:07AM 45.7622 -102.2144 104° East 268 308 27,000  Level Minneapolis Center
11:08AM 45.7397 -102.1114 107° East 270 311 27,000  Level Minneapolis Center
11:09AM 45.7192 -102.0083 106° East 270 311 27,000  Level Minneapolis Center
11:10AM 45.6994 -101.9058 105° East 269 310 27,000  Level Minneapolis Center
11:11AM 45.6792 -101.8022 106° East 270 311 27,000  Level Minneapolis Center
11:12AM 45.6578 -101.7008 107° East 269 310 27,000  Level Minneapolis Center
11:13AM 45.6369 -101.5975 106° East 269 310 27,000  Level Minneapolis Center
11:14AM 45.6125 -101.4742 106° East 270 311 27,000  Level Minneapolis Center
11:15AM 45.5922 -101.3719 106° East 268 308 27,000  Level Minneapolis Center
11:16AM 45.5697 -101.2706 108° East 268 308 27,000  Level Minneapolis Center
11:17AM 45.5500 -101.1656 105° East 271 312 27,000  Level Minneapolis Center
11:18AM 45.5286 -101.0617 106° East 273 314 27,000  Level Minneapolis Center
11:19AM 45.5033 -100.9414 107° East 268 308 27,000  Level Minneapolis Center
11:20AM 45.4822 -100.8367 106° East 271 312 27,000  Level Minneapolis Center
11:21AM 45.4606 -100.7347 107° East 270 311 27,000  Level Minneapolis Center
11:22AM 45.4389 -100.6336 107° East 268 308 27,000  Level Minneapolis Center
11:23AM 45.4175 -100.5319 107° East 267 307 27,000  Level Minneapolis Center
11:24AM 45.3947 -100.4300 108° East 269 310 27,000  Level Minneapolis Center
11:25AM 45.3694 -100.3086 106° East 267 307 27,000  Level Minneapolis Center
11:26AM 45.3483 -100.2086 107° East 265 305 27,000  Level Minneapolis Center
11:27AM 45.3264 -100.1083 107° East 265 305 27,000  Level Minneapolis Center
11:28AM 45.3039 -100.0072 108° East 265 305 27,000  Level Minneapolis Center
11:29AM 45.2819 -99.9064 107° East 266 306 27,000  Level Minneapolis Center
11:30AM 45.2608 -99.8058 107° East 264 304 27,000  Level Minneapolis Center
11:31AM 45.2375 -99.7056 108° East 265 305 27,000  Level Minneapolis Center
11:32AM 45.2147 -99.6067 108° East 264 304 27,000  Level Minneapolis Center
11:33AM 45.1875 -99.4869 108° East 263 303 27,000  Level Minneapolis Center
11:35AM 45.1664 -99.3875 107° East 263 303 27,000  Level Minneapolis Center
11:36AM 45.1436 -99.2872 108° East 265 305 27,000  Level Minneapolis Center
11:37AM 45.1208 -99.1875 108° East 266 306 27,000  Level Minneapolis Center
11:38AM 45.0978 -99.0875 108° East 266 306 27,000  Level Minneapolis Center
11:39AM 45.0803 -99.0089 107° East 265 305 27,000  Level Minneapolis Center
11:40AM 45.0536 -98.8911 108° East 263 303 27,000  Level Minneapolis Center
11:41AM 45.0267 -98.7725 108° East 263 303 27,000  Level Minneapolis Center
11:42AM 45.0036 -98.6739 108° East 263 303 27,000  Level Minneapolis Center
11:43AM 44.9806 -98.5758 108° East 263 303 27,000  Level Minneapolis Center
11:44AM 44.9575 -98.4778 108° East 263 303 27,000  Level Minneapolis Center
11:45AM 44.9347 -98.3817 108° East 264 304 27,000  Level Minneapolis Center
11:46AM 44.9067 -98.2647 109° East 263 303 27,000  Level Minneapolis Center
11:47AM 44.8833 -98.1664 108° East 264 304 27,000  Level Minneapolis Center
11:48AM 44.8608 -98.0675 108° East 265 305 27,000  Level Minneapolis Center
11:49AM 44.8364 -97.9714 110° East 262 302 27,000  Level Minneapolis Center
11:50AM 44.8131 -97.8728 108° East 265 305 27,000  Level Minneapolis Center
11:51AM 44.7894 -97.7778 109° East 259 298 27,000  Level Minneapolis Center
11:52AM 44.7603 -97.6608 109° East 264 304 27,000  Level Minneapolis Center
11:53AM 44.7369 -97.5650 109° East 260 299 27,000  Level Minneapolis Center
11:54AM 44.7131 -97.4700 109° East 259 298 27,000  Level Minneapolis Center
11:55AM 44.6892 -97.3742 109° East 258 297 27,000  Level Minneapolis Center
11:56AM 44.6664 -97.2781 108° East 258 297 27,000  Level Minneapolis Center
11:57AM 44.6417 -97.1833 110° East 258 297 27,000  Level Minneapolis Center
11:58AM 44.6139 -97.0681 109° East 260 299 27,000  Level Minneapolis Center
12:00PM 44.5853 -96.9539 109° East 259 298 27,000  Level Minneapolis Center
12:01PM 44.5558 -96.8403 110° East 259 298 27,000  Level Minneapolis Center
12:02PM 44.5322 -96.7442 109° East 260 299 27,000  Level Minneapolis Center
12:03PM 44.5075 -96.6483 110° East 261 300 27,000  Level Minneapolis Center
12:04PM 44.4831 -96.5531 110° East 261 300 27,000  Level Minneapolis Center
12:05PM 44.4586 -96.4558 109° East 264 304 27,000  Level Minneapolis Center
12:06PM 44.4292 -96.3406 110° East 261 300 27,000  Level Minneapolis Center
12:07PM 44.4042 -96.2431 110° East 264 304 27,000  Level Minneapolis Center
12:08PM 44.3742 -96.1500 114° Southeast 259 298 27,000  Level Minneapolis Center
12:09PM 44.3331 -96.0644 124° Southeast 261 300 27,000  Level Minneapolis Center
12:10PM 44.2961 -95.9758 120° Southeast 262 302 27,000  Level Minneapolis Center
12:11PM 44.2578 -95.8889 122° Southeast 262 302 27,000  Level Minneapolis Center
12:12PM 44.2122 -95.7850 121° Southeast 261 300 27,000  Level Minneapolis Center
12:13PM 44.1747 -95.6986 121° Southeast 260 299 27,000  Level Minneapolis Center
12:14PM 44.1375 -95.6122 121° Southeast 261 300 27,000  Level Minneapolis Center
12:15PM 44.0992 -95.5269 122° Southeast 261 300 27,000  Level Minneapolis Center
12:16PM 44.0619 -95.4425 122° Southeast 257 296 27,000  Level Minneapolis Center
12:17PM 44.0250 -95.3572 121° Southeast 258 297 27,000  Level Minneapolis Center
12:18PM 43.9861 -95.2725 123° Southeast 260 299 27,000  Level Minneapolis Center
12:19PM 43.9406 -95.1711 122° Southeast 258 297 27,000  Level Minneapolis Center
12:20PM 43.9039 -95.0878 121° Southeast 256 295 27,000  Level Minneapolis Center
12:21PM 43.8661 -95.0039 122° Southeast 256 295 27,000  Level Minneapolis Center
12:23PM 43.8289 -94.9203 122° Southeast 257 296 27,000  Level Minneapolis Center
12:24PM 43.7914 -94.8372 122° Southeast 255 293 27,000  Level Minneapolis Center
12:25PM 43.7536 -94.7544 122° Southeast 255 293 27,000  Level Minneapolis Center
12:26PM 43.7086 -94.6544 122° Southeast 255 293 27,000  Level Minneapolis Center
12:27PM 43.6703 -94.5725 123° Southeast 256 295 27,000  Level Minneapolis Center
12:28PM 43.6328 -94.4897 122° Southeast 255 293 27,000  Level Minneapolis Center
12:29PM 43.5958 -94.4058 121° Southeast 256 295 27,000  Level Minneapolis Center
12:30PM 43.5569 -94.3231 123° Southeast 257 296 27,000  Level Minneapolis Center
12:31PM 43.5144 -94.2297 122° Southeast 256 295 27,000  Level Minneapolis Center
12:32PM 43.4767 -94.1481 122° Southeast 256 295 27,000  Level Minneapolis Center
12:33PM 43.4311 -94.0500 123° Southeast 255 293 27,000  Level Minneapolis Center
12:34PM 43.3933 -93.9683 122° Southeast 255 293 27,000  Level Minneapolis Center
12:35PM 43.3400 -93.8531 122° Southeast 257 296 27,000  Level Minneapolis Center
12:36PM 43.3011 -93.7703 123° Southeast 258 297 27,000  Level Minneapolis Center
12:37PM 43.2633 -93.6886 122° Southeast 256 295 27,000  Level Minneapolis Center
12:38PM 43.2239 -93.6064 123° Southeast 260 299 27,000  Level Minneapolis Center
12:39PM 43.1856 -93.5225 122° Southeast 262 302 27,000  Level Minneapolis Center
12:41PM 43.1386 -93.4239 123° Southeast 261 300 27,000  Level Minneapolis Center
12:42PM 43.0989 -93.3406 123° Southeast 263 303 27,000  Level Minneapolis Center
12:43PM 43.0600 -93.2581 123° Southeast 262 302 27,000  Level Minneapolis Center
12:44PM 43.0211 -93.1736 122° Southeast 263 303 27,000  Level Minneapolis Center
12:45PM 42.9736 -93.0731 123° Southeast 265 305 27,000  Level Minneapolis Center
12:46PM 42.9344 -92.9883 122° Southeast 265 305 27,000  Level Minneapolis Center
12:47PM 42.8950 -92.9053 123° Southeast 264 304 27,000  Level Minneapolis Center
12:48PM 42.8556 -92.8214 123° Southeast 264 304 27,000  Level Minneapolis Center
12:49PM 42.8075 -92.7214 123° Southeast 264 304 27,000  Level Chicago Center
12:50PM 42.7681 -92.6375 123° Southeast 266 306 27,000  Level Chicago Center
12:51PM 42.7283 -92.5542 123° Southeast 265 305 27,000  Level Chicago Center
12:52PM 42.6808 -92.4550 123° Southeast 264 304 27,000  Level Chicago Center
12:53PM 42.6411 -92.3703 122° Southeast 267 307 27,000  Level Chicago Center
12:54PM 42.6019 -92.2869 123° Southeast 265 305 27,000  Level Chicago Center
12:55PM 42.5608 -92.2047 124° Southeast 266 306 27,000  Level Chicago Center
12:56PM 42.5133 -92.1044 123° Southeast 267 307 27,000  Level Chicago Center
12:57PM 42.4739 -92.0222 123° Southeast 265 305 27,000  Level Chicago Center
12:58PM 42.4344 -91.9406 123° Southeast 263 303 27,000  Level Chicago Center
12:59PM 42.3939 -91.8575 123° Southeast 267 307 27,000  Level Chicago Center
01:00PM 42.3456 -91.7592 124° Southeast 266 306 27,000  Level Chicago Center
01:01PM 42.3047 -91.6769 124° Southeast 267 307 27,000  Level Chicago Center
01:02PM 42.2644 -91.5928 123° Southeast 271 312 27,000  Level Chicago Center
01:03PM 42.2233 -91.5111 124° Southeast 266 306 27,000 -240 Level Chicago Center
01:04PM 42.1819 -91.4275 124° Southeast 270 311 26,600 -480 Descending Chicago Center
01:05PM 42.1300 -91.3211 123° Southeast 284 327 26,100 -540 Descending Chicago Center
01:07PM 42.0858 -91.2339 124° Southeast 285 328 25,600 -540 Descending Chicago Center
01:08PM 42.0444 -91.1464 122° Southeast 283 326 25,100 -540 Descending Chicago Center
01:09PM 42.0000 -91.0622 125° Southeast 281 323 24,600 -540 Descending Chicago Center
01:10PM 41.9569 -90.9758 124° Southeast 281 323 24,100 -540 Descending Chicago Center
01:11PM 41.9072 -90.8769 124° Southeast 269 310 23,500 -540 Descending Chicago Center
01:12PM 41.8658 -90.7961 124° Southeast 267 307 23,000 -540 Descending Chicago Center
01:13PM 41.8244 -90.7156 125° Southeast 264 304 22,500 -480 Descending Chicago Center
01:14PM 41.7836 -90.6325 123° Southeast 267 307 22,100 -480 Descending Chicago Center
01:15PM 41.7417 -90.5517 125° Southeast 264 304 21,600 -780 Descending Chicago Center
01:16PM 41.6906 -90.4519 124° Southeast 270 311 20,500 -1,020 Descending Chicago Center
01:17PM 41.6442 -90.3803 131° Southeast 259 298 19,500 -780 Descending Chicago Center
01:18PM 41.6017 -90.3097 129° Southeast 244 281 19,000 -300 Descending Chicago Center
01:19PM 41.5606 -90.2422 129° Southeast 235 270 19,000  Level Chicago Center
01:20PM 41.5186 -90.1758 130° Southeast 234 269 19,000  Level Chicago Center
01:21PM 41.4783 -90.1031 126° Southeast 240 276 19,000  Level Chicago Center
01:22PM 41.4247 -90.0183 130° Southeast 247 284 19,000 -60 Level Chicago Center
01:23PM 41.3811 -89.9481 130° Southeast 248 285 18,900 -540 Descending Chicago Center
01:24PM 41.3417 -89.8714 124° Southeast 251 289 18,000 -960 Descending Chicago Center
01:25PM 41.3622 -89.7936 71° East 224 258 17,000 -960 Descending Chicago Center
01:26PM 41.3739 -89.7100 79° East 228 262 16,000 -960 Descending Chicago Center
01:27PM 41.3850 -89.6197 81° East 243 280 15,000 -1,020 Descending Chicago Center
01:28PM 41.3964 -89.5328 80° East 240 276 14,000 -1,020 Descending Chicago Center
01:29PM 41.4089 -89.4342 80° East 226 260 13,000 -840 Descending Chicago Center
01:30PM 41.4203 -89.3567 79° East 216 249 12,300 -660 Descending Chicago Center
01:31PM 41.4292 -89.2725 82° East 225 259 11,700 -720 Descending Chicago Center
01:32PM 41.4408 -89.1861 80° East 216 249 10,900 -780 Descending Chicago Center
01:33PM 41.4497 -89.1114 81° East 208 239 10,200 -720 Descending Chicago Center
01:34PM 41.4594 -89.0361 80° East 207 238 9,500 -720 Descending Chicago Center
01:35PM 41.4686 -88.9636 80° East 202 232 8,800 -720 Descending Chicago Center
01:37PM 41.4769 -88.8906 81° East 201 231 8,100 -780 Descending Chicago Center
01:38PM 41.4872 -88.8067 81° East 194 223 7,300 -720 Descending Chicago Center
01:39PM 41.4961 -88.7367 80° East 193 222 6,600 -600 Descending Chicago Center
01:40PM 41.5044 -88.6689 81° East 187 215 6,100 -300 Descending Chicago Center
01:41PM 41.5117 -88.6025 82° East 183 211 6,000 -60 Descending Chicago Center
01:42PM 41.5203 -88.5342 80° East 186 214 6,000 -120 Level Chicago Center
01:43PM 41.5325 -88.4669 76° East 188 216 5,800 -420 Descending Chicago Center
01:44PM 41.5514 -88.3864 73° East 190 219 5,200 -420 Descending Chicago Center
01:45PM 41.5644 -88.3211 75° East 185 213 5,000 -120 Descending Chicago Center
01:46PM 41.5789 -88.2589 73° East 179 206 5,000 -240 Level Chicago Center
01:47PM 41.5922 -88.1944 75° East 180 207 4,600 -480 Descending Chicago Center
01:48PM 41.6058 -88.1328 74° East 176 203 4,100 -300 Descending Chicago Center
01:49PM 41.6200 -88.0692 73° East 177 204 4,000 -60 Descending Chicago Center
01:50PM 41.6361 -87.9928 74° East 177 204 4,000  Level Chicago Center
01:51PM 41.6500 -87.9275 74° East 179 206 4,000 -180 Level Chicago Center
01:52PM 41.6778 -87.8822 51° Northeast 173 199 3,700 -780 Descending Chicago Center
01:53PM 41.7133 -87.8450 38° Northeast 168 193 2,500 -960 Descending Chicago Center
01:54PM 41.7433 -87.8056 44° Northeast 160 184 1,800 -720 Descending Chicago Center
01:55PM 41.7722 -87.7683 44° Northeast 150 173 1,100 -720 Descending Chicago Center
01:57PM 41.7833 -87.7500 51° Northeast  Level FlightAware Approximate
02:04PM 41.7860 -87.7524 51° Northeast  Level Estimated